Time;durP1;ratioP1;P1;durP2;ratioP2;P2;SDS_P1;SDS_P2;PMS_P1;PMS_P2;Temp;Humidity;BMP_temperature;BMP_pressure;BME280_temperature;BME280_humidity;BME280_pressure;Samples;Min_cycle;Max_cycle;Signal;HPM_P1;HPM_P2
2021/03/03 00:01:58;;;;;;;2.6;1.4;;;;;;;3.3;67.0791;951.4252;;;;
2021/03/03 00:04:19;;;;;;;3.9;2.3;;;;;;;3.32;67.04785;951.4692;;;;
2021/03/03 00:06:44;;;;;;;5.2;1.7;;;;;;;3.19;67.43359;951.4713;;;;
2021/03/03 00:09:09;;;;;;;2.9;1.7;;;;;;;3.09;67.80859;951.4236;;;;
2021/03/03 00:11:38;;;;;;;1.5;1.2;;;;;;;3;68.14063;951.3251;;;;
2021/03/03 00:14:03;;;;;;;3.9;1.1;;;;;;;3.07;67.80469;951.3572;;;;
2021/03/03 00:16:30;;;;;;;3.1;1.6;;;;;;;2.94;68.18848;951.3501;;;;
2021/03/03 00:18:55;;;;;;;1.7;1.5;;;;;;;2.95;68.24609;951.353;;;;
2021/03/03 00:21:20;;;;;;;1.7;1.4;;;;;;;2.97;68.08008;951.3084;;;;
2021/03/03 00:23:45;;;;;;;3;1.7;;;;;;;2.98;68.09473;951.3525;;;;
2021/03/03 00:26:16;;;;;;;1.2;1.1;;;;;;;3;67.96289;951.2706;;;;
2021/03/03 00:28:46;;;;;;;5.5;1.3;;;;;;;2.89;68.41699;951.2367;;;;
2021/03/03 00:31:11;;;;;;;4.2;1.5;;;;;;;2.86;68.81641;951.2905;;;;
2021/03/03 00:33:39;;;;;;;1.8;1.3;;;;;;;2.8;69.25293;951.2608;;;;
2021/03/03 00:36:05;;;;;;;7.4;2.1;;;;;;;2.64;69.94336;951.2097;;;;
2021/03/03 00:38:30;;;;;;;3.2;1.4;;;;;;;2.57;70.22461;951.2767;;;;
2021/03/03 00:40:56;;;;;;;1.2;1.1;;;;;;;2.45;70.70996;951.31;;;;
2021/03/03 00:43:24;;;;;;;2;1.2;;;;;;;2.39;70.96582;951.3025;;;;
2021/03/03 00:45:52;;;;;;;3.2;1.2;;;;;;;2.45;70.84375;951.3018;;;;
2021/03/03 00:48:22;;;;;;;2.4;1.7;;;;;;;2.52;70.48633;951.3133;;;;
2021/03/03 00:50:47;;;;;;;4;1.4;;;;;;;2.57;70.08984;951.2031;;;;
2021/03/03 00:53:13;;;;;;;3.1;1.3;;;;;;;2.72;69.28418;951.2366;;;;
2021/03/03 00:55:42;;;;;;;2;1.2;;;;;;;2.74;68.68359;951.132;;;;
2021/03/03 00:58:10;;;;;;;0.7;0.7;;;;;;;2.74;68.30176;951.2421;;;;
2021/03/03 01:00:36;;;;;;;1.9;1.2;;;;;;;2.89;68.03516;951.2709;;;;
2021/03/03 01:03:03;;;;;;;1.8;1.1;;;;;;;3.02;67.18066;951.2425;;;;
2021/03/03 01:05:27;;;;;;;2.1;1.5;;;;;;;3.07;66.89551;951.2074;;;;
2021/03/03 01:07:54;;;;;;;1.5;1.2;;;;;;;3.02;67.09082;951.178;;;;
2021/03/03 01:10:33;;;;;;;1;0.7;;;;;;;2.91;67.55566;951.1863;;;;
2021/03/03 01:13:05;;;;;;;3.5;1.1;;;;;;;2.85;67.6709;951.0876;;;;
2021/03/03 01:15:41;;;;;;;2.3;1.3;;;;;;;2.7;68.33984;951.0837;;;;
2021/03/03 01:18:11;;;;;;;2;1.4;;;;;;;2.52;69.12891;951.0316;;;;
2021/03/03 01:20:41;;;;;;;2.5;1.3;;;;;;;2.4;69.69336;951.017;;;;
2021/03/03 01:23:09;;;;;;;2.1;1.2;;;;;;;2.28;70.06445;951.0031;;;;
2021/03/03 01:25:44;;;;;;;3.1;1.1;;;;;;;2.28;70.17676;950.8911;;;;
2021/03/03 01:28:12;;;;;;;0.9;0.5;;;;;;;2.12;71.03613;950.9481;;;;
2021/03/03 01:30:38;;;;;;;0.7;0.6;;;;;;;2.14;71.18457;950.9651;;;;
2021/03/03 01:33:06;;;;;;;0.9;0.7;;;;;;;2.12;71.29199;950.9086;;;;
2021/03/03 01:35:41;;;;;;;1.6;0.9;;;;;;;2.12;71.33789;950.835;;;;
2021/03/03 01:38:11;;;;;;;1.4;0.7;;;;;;;2.28;70.53516;950.8716;;;;
2021/03/03 01:40:37;;;;;;;0.7;0.6;;;;;;;2.31;70.38281;950.8622;;;;
2021/03/03 01:43:02;;;;;;;0.5;0.5;;;;;;;2.35;69.92969;950.8253;;;;
2021/03/03 01:45:31;;;;;;;3.1;1.3;;;;;;;2.31;69.43066;950.7896;;;;
2021/03/03 01:48:02;;;;;;;1.2;0.5;;;;;;;2.33;69.04199;950.7911;;;;
2021/03/03 01:50:32;;;;;;;0.6;0.5;;;;;;;2.38;68.68066;950.7654;;;;
2021/03/03 01:52:58;;;;;;;2.9;0.9;;;;;;;2.48;68.32715;950.7556;;;;
2021/03/03 01:55:27;;;;;;;3.6;0.8;;;;;;;2.59;67.86426;950.7414;;;;
2021/03/03 01:57:54;;;;;;;1.5;0.7;;;;;;;2.61;67.73145;950.6653;;;;
2021/03/03 02:00:26;;;;;;;0.8;0.7;;;;;;;2.58;67.7832;950.7123;;;;
2021/03/03 02:02:52;;;;;;;0.9;0.6;;;;;;;2.68;67.27148;950.7192;;;;
2021/03/03 02:05:21;;;;;;;0.9;0.7;;;;;;;2.55;67.65527;950.6994;;;;
2021/03/03 02:07:46;;;;;;;0.5;0.3;;;;;;;2.51;67.96289;950.6831;;;;
2021/03/03 02:10:11;;;;;;;2.3;0.7;;;;;;;2.32;68.65918;950.6396;;;;
2021/03/03 02:12:37;;;;;;;2;0.7;;;;;;;2.19;69.1543;950.7026;;;;
2021/03/03 02:15:02;;;;;;;0.9;0.7;;;;;;;2.17;69.18359;950.6735;;;;
2021/03/03 02:17:36;;;;;;;1.7;0.9;;;;;;;2.04;69.47656;950.6422;;;;
2021/03/03 02:20:10;;;;;;;8.5;1.2;;;;;;;2.03;69.50781;950.6509;;;;
2021/03/03 02:22:44;;;;;;;0.8;0.6;;;;;;;2;69.43652;950.5834;;;;
2021/03/03 02:25:14;;;;;;;2.5;0.9;;;;;;;2.11;69.48828;950.5811;;;;
2021/03/03 02:27:41;;;;;;;1.8;0.9;;;;;;;2.07;69.95215;950.5695;;;;
2021/03/03 02:30:07;;;;;;;1;0.9;;;;;;;2.1;69.64355;950.5925;;;;
2021/03/03 02:32:37;;;;;;;1.1;0.7;;;;;;;2.18;69.11914;950.6351;;;;
2021/03/03 02:35:07;;;;;;;1.2;0.7;;;;;;;2.17;69.06152;950.592;;;;
2021/03/03 02:37:34;;;;;;;0.9;0.7;;;;;;;2.04;69.54297;950.613;;;;
2021/03/03 02:39:59;;;;;;;0.5;0.5;;;;;;;1.92;69.87109;950.5772;;;;
2021/03/03 02:42:25;;;;;;;0.4;0.4;;;;;;;1.94;69.63867;950.6208;;;;
2021/03/03 02:44:50;;;;;;;1.2;0.8;;;;;;;1.92;69.97168;950.5631;;;;
2021/03/03 02:47:20;;;;;;;1.6;0.9;;;;;;;1.98;69.44531;950.5828;;;;
2021/03/03 02:49:45;;;;;;;0.6;0.6;;;;;;;2.14;68.77637;950.587;;;;
2021/03/03 02:52:10;;;;;;;0.7;0.6;;;;;;;1.91;68.87207;950.6291;;;;
2021/03/03 02:54:37;;;;;;;0.7;0.6;;;;;;;1.93;68.79785;950.625;;;;
2021/03/03 02:57:04;;;;;;;0.9;0.7;;;;;;;1.97;68.59277;950.6055;;;;
2021/03/03 02:59:33;;;;;;;1;0.4;;;;;;;1.97;68.26855;950.5436;;;;
2021/03/03 03:01:59;;;;;;;0.7;0.7;;;;;;;2.14;67.52246;950.6138;;;;
2021/03/03 03:04:24;;;;;;;1;0.6;;;;;;;2.18;67.99902;950.6106;;;;
2021/03/03 03:06:49;;;;;;;0.8;0.7;;;;;;;2.25;68.11133;950.5577;;;;
2021/03/03 03:09:14;;;;;;;3.7;0.9;;;;;;;2.2;68.43945;950.6197;;;;
2021/03/03 03:11:42;;;;;;;2;1;;;;;;;2.06;68.97559;950.6519;;;;
2021/03/03 03:14:08;;;;;;;1.4;1;;;;;;;1.93;69.45801;950.7139;;;;
2021/03/03 03:16:54;;;;;;;1.1;0.7;;;;;;;1.9;69.25293;950.733;;;;
2021/03/03 03:19:28;;;;;;;1.9;0.6;;;;;;;1.89;69.22754;950.6969;;;;
2021/03/03 03:21:53;;;;;;;1.1;0.9;;;;;;;1.76;69.55371;950.7271;;;;
2021/03/03 03:24:18;;;;;;;0.7;0.7;;;;;;;1.8;69.52734;950.7333;;;;
2021/03/03 03:26:43;;;;;;;1.6;0.8;;;;;;;1.7;69.93457;950.7043;;;;
2021/03/03 03:29:12;;;;;;;0.8;0.6;;;;;;;1.67;70.06543;950.6859;;;;
2021/03/03 03:31:38;;;;;;;2;1;;;;;;;1.72;70.07324;950.699;;;;
2021/03/03 03:34:02;;;;;;;1.2;1;;;;;;;1.85;69.61328;950.653;;;;
2021/03/03 03:36:27;;;;;;;0.6;0.6;;;;;;;1.65;70.21875;950.7176;;;;
2021/03/03 03:38:54;;;;;;;1;0.7;;;;;;;1.65;70.64258;950.755;;;;
2021/03/03 03:41:25;;;;;;;2.4;1;;;;;;;1.73;70.33203;950.7867;;;;
2021/03/03 03:43:50;;;;;;;0.6;0.6;;;;;;;1.64;70.45117;950.8008;;;;
2021/03/03 03:46:16;;;;;;;1.3;0.8;;;;;;;1.66;70.55469;950.7986;;;;
2021/03/03 03:48:41;;;;;;;1;0.7;;;;;;;1.48;71.3291;950.7877;;;;
2021/03/03 03:51:08;;;;;;;2.5;1.2;;;;;;;1.4;71.69727;950.8359;;;;
2021/03/03 03:53:33;;;;;;;1.3;1;;;;;;;1.51;71.14551;950.7026;;;;
2021/03/03 03:55:59;;;;;;;1.3;0.5;;;;;;;1.65;70.50879;950.825;;;;
2021/03/03 03:58:24;;;;;;;1.1;0.7;;;;;;;1.65;70.38574;950.8225;;;;
2021/03/03 04:02:30;;;;;;;0.8;0.6;;;;;;;1.47;71.08203;950.8091;;;;
2021/03/03 04:04:55;;;;;;;2.4;1.1;;;;;;;1.5;71.13086;950.9375;;;;
2021/03/03 04:07:21;;;;;;;1.1;0.5;;;;;;;1.36;71.79004;950.92;;;;
2021/03/03 04:09:47;;;;;;;4.6;1.7;;;;;;;1.41;71.74219;950.915;;;;
2021/03/03 04:12:14;;;;;;;3;0.9;;;;;;;1.31;72.29688;950.923;;;;
2021/03/03 04:14:39;;;;;;;0.8;0.7;;;;;;;1.35;72.06836;950.9651;;;;
2021/03/03 04:17:06;;;;;;;1.1;0.9;;;;;;;1.43;71.67773;950.9116;;;;
2021/03/03 04:19:31;;;;;;;12.8;1.2;;;;;;;1.37;72.01563;950.9579;;;;
2021/03/03 04:21:58;;;;;;;1.4;0.9;;;;;;;1.22;72.54883;951.0081;;;;
2021/03/03 04:24:23;;;;;;;0.6;0.6;;;;;;;1.19;72.54297;951.0133;;;;
2021/03/03 04:26:50;;;;;;;7.3;0.9;;;;;;;1.31;72.17383;951.0005;;;;
2021/03/03 04:29:15;;;;;;;0.5;0.5;;;;;;;1.28;72.07813;951.0164;;;;
2021/03/03 04:31:42;;;;;;;0.7;0.6;;;;;;;1.35;71.87793;951.0028;;;;
2021/03/03 04:34:07;;;;;;;1.3;0.7;;;;;;;1.45;71.26855;951.0771;;;;
2021/03/03 04:36:33;;;;;;;1.1;0.9;;;;;;;1.4;71.50586;951.028;;;;
2021/03/03 04:38:58;;;;;;;13.8;1.7;;;;;;;1.35;71.85742;951.0213;;;;
2021/03/03 04:41:24;;;;;;;0.8;0.7;;;;;;;1.41;71.75488;951.0764;;;;
2021/03/03 04:43:52;;;;;;;0.9;0.7;;;;;;;1.5;71.5127;950.9855;;;;
2021/03/03 04:46:17;;;;;;;2.4;0.9;;;;;;;1.58;71.03418;951.0667;;;;
2021/03/03 04:48:44;;;;;;;1.5;1;;;;;;;1.68;70.14551;950.9996;;;;
2021/03/03 04:51:09;;;;;;;0.9;0.7;;;;;;;1.73;69.97363;950.9689;;;;
2021/03/03 04:53:36;;;;;;;2.3;1.1;;;;;;;1.83;69.51074;951.0079;;;;
2021/03/03 04:56:03;;;;;;;1;0.9;;;;;;;1.8;69.51563;950.9888;;;;
2021/03/03 04:58:31;;;;;;;2.3;1.1;;;;;;;1.86;69.23438;950.9991;;;;
2021/03/03 05:00:56;;;;;;;0.4;0.4;;;;;;;1.74;69.58398;950.9613;;;;
2021/03/03 05:03:24;;;;;;;2.5;1.2;;;;;;;1.59;70.41016;951.0491;;;;
2021/03/03 05:05:50;;;;;;;4.9;1.3;;;;;;;1.6;70.55566;951.0488;;;;
2021/03/03 05:08:14;;;;;;;4.1;1.8;;;;;;;1.6;70.54395;951.0544;;;;
2021/03/03 05:10:40;;;;;;;6.5;2.4;;;;;;;1.62;70.41406;951.0036;;;;
2021/03/03 05:13:06;;;;;;;3.4;1.6;;;;;;;1.56;70.4834;951.0129;;;;
2021/03/03 05:15:36;;;;;;;6;1.4;;;;;;;1.64;70.2832;950.9631;;;;
2021/03/03 05:18:00;;;;;;;2;1.6;;;;;;;1.68;69.75293;950.9484;;;;
2021/03/03 05:20:28;;;;;;;4.6;2.6;;;;;;;1.65;70.11719;951.025;;;;
2021/03/03 05:22:53;;;;;;;3.7;2.4;;;;;;;1.58;70.47559;950.916;;;;
2021/03/03 05:25:24;;;;;;;2.9;1.9;;;;;;;1.56;70.70703;950.9539;;;;
2021/03/03 05:27:49;;;;;;;9.4;5.1;;;;;;;1.49;71.16504;950.9384;;;;
2021/03/03 05:30:17;;;;;;;7.5;4.3;;;;;;;1.41;71.44141;950.8667;;;;
2021/03/03 05:32:43;;;;;;;3;2.2;;;;;;;1.34;71.83203;950.956;;;;
2021/03/03 05:35:10;;;;;;;5.3;1.3;;;;;;;1.46;71.60742;950.9086;;;;
2021/03/03 05:37:35;;;;;;;3.1;1.5;;;;;;;1.56;71.17676;950.9131;;;;
2021/03/03 05:40:02;;;;;;;4.8;1.8;;;;;;;1.62;70.86133;950.9562;;;;
2021/03/03 05:42:27;;;;;;;6.4;1.1;;;;;;;1.65;70.68848;950.9453;;;;
2021/03/03 05:44:56;;;;;;;9.8;1.8;;;;;;;1.64;70.55176;950.8692;;;;
2021/03/03 05:47:21;;;;;;;1.5;1;;;;;;;1.68;70.69336;950.8922;;;;
2021/03/03 05:49:46;;;;;;;2.4;1.2;;;;;;;1.74;69.76465;950.8621;;;;
2021/03/03 05:52:12;;;;;;;0.7;0.7;;;;;;;1.87;69.78418;950.8354;;;;
2021/03/03 05:54:37;;;;;;;2.3;1;;;;;;;1.78;69.88086;950.825;;;;
2021/03/03 05:57:02;;;;;;;3;1.5;;;;;;;1.79;69.86133;950.8461;;;;
2021/03/03 05:59:27;;;;;;;11.5;2.5;;;;;;;1.8;69.97461;950.794;;;;
2021/03/03 06:01:54;;;;;;;3.2;1.9;;;;;;;1.79;69.76074;950.7864;;;;
2021/03/03 06:04:20;;;;;;;4;1.8;;;;;;;1.83;69.19727;950.7614;;;;
2021/03/03 06:06:50;;;;;;;2.9;1.7;;;;;;;1.94;69.01367;950.7657;;;;
2021/03/03 06:09:19;;;;;;;6.1;1.4;;;;;;;2.07;68.56445;950.787;;;;
2021/03/03 06:11:43;;;;;;;8.6;2.1;;;;;;;2.08;68.25098;950.6924;;;;
2021/03/03 06:14:09;;;;;;;4.1;1.8;;;;;;;2.2;68.28223;950.6533;;;;
2021/03/03 06:16:36;;;;;;;5.7;1.7;;;;;;;2.19;68.41504;950.7316;;;;
2021/03/03 06:19:02;;;;;;;2;1.2;;;;;;;2.08;68.81055;950.7106;;;;
2021/03/03 06:21:27;;;;;;;0.9;0.8;;;;;;;2.15;68.37598;950.7156;;;;
2021/03/03 06:23:52;;;;;;;4.4;1.2;;;;;;;2.3;69.50977;950.7047;;;;
2021/03/03 06:26:17;;;;;;;1.5;1;;;;;;;2.77;66.72559;950.6672;;;;
2021/03/03 06:28:42;;;;;;;2.5;1.6;;;;;;;3.53;63.71094;950.6519;;;;
2021/03/03 06:31:10;;;;;;;2.6;1.5;;;;;;;3.97;61.61816;950.6086;;;;
2021/03/03 06:33:35;;;;;;;1.7;1.5;;;;;;;4.06;60.79883;950.5759;;;;
2021/03/03 06:36:00;;;;;;;4.7;2.2;;;;;;;4.15;61.02539;950.5975;;;;
2021/03/03 06:38:25;;;;;;;5.4;3.2;;;;;;;4.22;60.5752;950.507;;;;
2021/03/03 06:40:51;;;;;;;3.4;2.3;;;;;;;4.18;60.74805;950.5538;;;;
2021/03/03 06:43:16;;;;;;;2.7;1;;;;;;;4.26;59.83887;950.4933;;;;
2021/03/03 06:45:44;;;;;;;2.7;1.4;;;;;;;4.31;59.02246;950.4955;;;;
2021/03/03 06:48:09;;;;;;;9.2;2.2;;;;;;;4.25;59.46484;950.5289;;;;
2021/03/03 06:50:35;;;;;;;13.4;3;;;;;;;4.18;60.06348;950.5377;;;;
2021/03/03 06:53:03;;;;;;;6.4;2.7;;;;;;;4.22;60.20313;950.5433;;;;
2021/03/03 06:55:28;;;;;;;25.6;2;;;;;;;4.18;59.63574;950.5172;;;;
2021/03/03 06:57:54;;;;;;;4.2;2;;;;;;;4.18;59.89453;950.4793;;;;
2021/03/03 07:00:19;;;;;;;3.9;1.8;;;;;;;4.08;60.73535;950.5197;;;;
2021/03/03 07:02:44;;;;;;;7.6;1.9;;;;;;;4;61.03711;950.4012;;;;
2021/03/03 07:05:10;;;;;;;4.4;1.8;;;;;;;3.97;61.42676;950.5181;;;;
2021/03/03 07:07:35;;;;;;;2.7;1.6;;;;;;;4;61.82422;950.5131;;;;
2021/03/03 07:10:01;;;;;;;6.9;2.2;;;;;;;4;61.91602;950.4576;;;;
2021/03/03 07:12:28;;;;;;;3.6;1.6;;;;;;;3.91;62.47656;950.5041;;;;
2021/03/03 07:14:52;;;;;;;4;2.3;;;;;;;3.92;62.4873;950.4797;;;;
2021/03/03 07:17:22;;;;;;;8.5;2.2;;;;;;;4.14;62.36328;950.533;;;;
2021/03/03 07:19:52;;;;;;;4.8;2.5;;;;;;;4.39;61.65625;950.5061;;;;
2021/03/03 07:22:21;;;;;;;5.6;2;;;;;;;4.72;60.35352;950.5549;;;;
2021/03/03 07:24:46;;;;;;;5.4;2.5;;;;;;;5;59.83008;950.5825;;;;
2021/03/03 07:27:15;;;;;;;2.4;1.6;;;;;;;5.4;58.94824;950.5458;;;;
2021/03/03 07:29:40;;;;;;;3.1;1.9;;;;;;;6.12;56.24609;950.402;;;;
2021/03/03 07:32:07;;;;;;;14.1;2.8;;;;;;;6.65;54.1748;950.4673;;;;
2021/03/03 07:34:32;;;;;;;3.2;2;;;;;;;6.84;51.7207;950.4547;;;;
2021/03/03 07:37:02;;;;;;;2.7;1.3;;;;;;;7.25;51.73633;950.4528;;;;
2021/03/03 07:39:27;;;;;;;3.1;1.7;;;;;;;7.55;52.98633;950.4805;;;;
2021/03/03 07:41:52;;;;;;;4.9;1.6;;;;;;;7.75;51.97852;950.3831;;;;
2021/03/03 07:44:17;;;;;;;0.5;0.5;;;;;;;7.62;49.94434;950.4099;;;;
2021/03/03 07:46:42;;;;;;;1.7;0.8;;;;;;;7.6;50.2373;950.415;;;;
2021/03/03 07:49:08;;;;;;;2.2;1.4;;;;;;;7.61;50.22559;950.4168;;;;
2021/03/03 07:51:33;;;;;;;1;0.8;;;;;;;7.58;49.19141;950.4222;;;;
2021/03/03 07:54:01;;;;;;;2.1;0.8;;;;;;;7.83;49.12891;950.3635;;;;
2021/03/03 07:56:26;;;;;;;2.4;0.7;;;;;;;8.04;48.1084;950.2429;;;;
2021/03/03 07:58:54;;;;;;;4.8;0.9;;;;;;;7.77;47.625;950.3635;;;;
2021/03/03 08:01:19;;;;;;;6.9;1.4;;;;;;;7.87;48.26953;950.3071;;;;
2021/03/03 08:03:47;;;;;;;2.3;1;;;;;;;8.16;47.35059;950.3425;;;;
2021/03/03 08:06:12;;;;;;;2.9;1.2;;;;;;;8.3;46.72949;950.3672;;;;
2021/03/03 08:08:40;;;;;;;5.1;2;;;;;;;8.27;46.60059;950.2915;;;;
2021/03/03 08:11:05;;;;;;;5.3;2.8;;;;;;;8.51;46.74023;950.2896;;;;
2021/03/03 08:13:33;;;;;;;9.2;3.8;;;;;;;8.76;46.27832;950.2845;;;;
2021/03/03 08:16:09;;;;;;;3;1.5;;;;;;;9.14;43.45215;950.3582;;;;
2021/03/03 08:18:34;;;;;;;19.6;3.4;;;;;;;9.88;43.04785;950.3096;;;;
2021/03/03 08:21:01;;;;;;;1.1;0.7;;;;;;;10.24;42.00977;950.3063;;;;
2021/03/03 08:23:26;;;;;;;1.7;0.9;;;;;;;10.44;41.02539;950.2726;;;;
2021/03/03 08:25:55;;;;;;;2.8;0.9;;;;;;;10.65;40.32617;950.2614;;;;
2021/03/03 08:28:20;;;;;;;3.5;1.3;;;;;;;10.98;40.62012;950.2127;;;;
2021/03/03 08:30:45;;;;;;;2;0.7;;;;;;;11.38;39.74121;950.2133;;;;
2021/03/03 08:33:10;;;;;;;2.9;1;;;;;;;11.35;37.9541;950.2285;;;;
2021/03/03 08:35:36;;;;;;;13.3;1.2;;;;;;;11.35;37.0166;950.2245;;;;
2021/03/03 08:38:01;;;;;;;1;0.3;;;;;;;11.28;36.64453;950.2371;;;;
2021/03/03 08:40:26;;;;;;;3.5;0.5;;;;;;;11;37.93555;950.1989;;;;
2021/03/03 08:42:51;;;;;;;0.4;0.2;;;;;;;11.15;37.65137;950.168;;;;
2021/03/03 08:45:17;;;;;;;0.3;0.3;;;;;;;11.29;37.83496;950.1655;;;;
2021/03/03 08:47:42;;;;;;;0.3;0.2;;;;;;;11.11;37.97949;950.0969;;;;
2021/03/03 08:50:08;;;;;;;4.3;0.6;;;;;;;11.04;36.00684;950.1605;;;;
2021/03/03 08:52:36;;;;;;;2.3;0.6;;;;;;;11.12;35.68262;950.0947;;;;
2021/03/03 08:55:03;;;;;;;0.9;0.3;;;;;;;11.03;35.58301;950.0772;;;;
2021/03/03 08:57:26;;;;;;;0.9;0.6;;;;;;;11.06;36.39746;950.0436;;;;
2021/03/03 08:59:51;;;;;;;2.1;0.8;;;;;;;11.13;35.55762;950.0678;;;;
2021/03/03 09:02:17;;;;;;;0.8;0.2;;;;;;;11.28;35.86719;950.0308;;;;
2021/03/03 09:04:42;;;;;;;1.5;0.4;;;;;;;11.06;35.92969;950.0542;;;;
2021/03/03 09:07:07;;;;;;;0.4;0.4;;;;;;;11.13;37.70703;949.9929;;;;
2021/03/03 09:09:35;;;;;;;1.2;0.3;;;;;;;11.58;35.92578;949.9107;;;;
2021/03/03 09:12:00;;;;;;;0.5;0.4;;;;;;;11.87;35.35449;949.9752;;;;
2021/03/03 09:14:27;;;;;;;11.4;0.7;;;;;;;12.12;34.14844;949.9467;;;;
2021/03/03 09:16:59;;;;;;;0.6;0.3;;;;;;;12.23;34.10059;949.9775;;;;
2021/03/03 09:19:28;;;;;;;1.1;0.4;;;;;;;12.49;33.87988;949.9458;;;;
2021/03/03 09:21:58;;;;;;;1;0.6;;;;;;;12.67;35.85547;949.9137;;;;
2021/03/03 09:24:23;;;;;;;0.4;0.2;;;;;;;12.22;33.06738;949.8942;;;;
2021/03/03 09:26:48;;;;;;;0.1;0.1;;;;;;;12.31;32.7998;949.8802;;;;
2021/03/03 09:29:15;;;;;;;0.5;0.3;;;;;;;12.58;32.16602;949.9028;;;;
2021/03/03 09:31:40;;;;;;;6.4;0.9;;;;;;;12.69;32.77148;949.8495;;;;
2021/03/03 09:34:05;;;;;;;1.1;0.9;;;;;;;13.01;33.03613;949.8791;;;;
2021/03/03 09:36:30;;;;;;;0.8;0.6;;;;;;;12.97;32.05762;949.8487;;;;
2021/03/03 09:38:55;;;;;;;1.2;0.2;;;;;;;12.52;31.84082;949.7801;;;;
2021/03/03 09:41:21;;;;;;;0.4;0.4;;;;;;;12.47;32.94922;949.8016;;;;
2021/03/03 09:43:47;;;;;;;0.4;0.3;;;;;;;12.47;33.38477;949.8375;;;;
2021/03/03 09:46:13;;;;;;;0.8;0.4;;;;;;;12.81;32.57324;949.8206;;;;
2021/03/03 09:48:38;;;;;;;0.5;0.4;;;;;;;12.99;32.79395;949.817;;;;
2021/03/03 09:51:03;;;;;;;0.8;0.8;;;;;;;13.09;32.37695;949.8705;;;;
2021/03/03 09:53:28;;;;;;;0.5;0.3;;;;;;;13.02;31.86621;949.858;;;;
2021/03/03 09:55:54;;;;;;;2.2;0.6;;;;;;;13.17;32.38281;949.8488;;;;
2021/03/03 09:58:19;;;;;;;1.4;0.6;;;;;;;13.6;31.93164;949.8083;;;;
2021/03/03 10:00:47;;;;;;;0.2;0.2;;;;;;;13.53;30.47754;949.7991;;;;
2021/03/03 10:03:12;;;;;;;2;0.4;;;;;;;13.44;31.27539;949.8102;;;;
2021/03/03 10:05:39;;;;;;;1;0.5;;;;;;;13.96;30.72559;949.767;;;;
2021/03/03 10:08:04;;;;;;;0.2;0.1;;;;;;;13.87;29.18945;949.7458;;;;
2021/03/03 10:10:32;;;;;;;0.2;0.2;;;;;;;14.1;30.35645;949.7006;;;;
2021/03/03 10:12:57;;;;;;;0.2;0.2;;;;;;;14;28.87598;949.606;;;;
2021/03/03 10:15:46;;;;;;;1;0.4;;;;;;;13.82;29.76172;949.6561;;;;
2021/03/03 10:18:11;;;;;;;0.1;0.1;;;;;;;14.29;29.24023;949.6258;;;;
2021/03/03 10:20:40;;;;;;;6.7;0.6;;;;;;;14.71;28.60059;949.6448;;;;
2021/03/03 10:23:05;;;;;;;0.3;0.1;;;;;;;15.14;29.54102;949.5643;;;;
2021/03/03 10:25:32;;;;;;;0.4;0.3;;;;;;;15.24;28.81934;949.6041;;;;
2021/03/03 10:27:58;;;;;;;1;0.6;;;;;;;15.15;26.72461;949.6005;;;;
2021/03/03 10:30:23;;;;;;;0.4;0.2;;;;;;;15.18;27.60449;949.6184;;;;
2021/03/03 10:32:48;;;;;;;0.1;0.1;;;;;;;15.76;28.27637;949.587;;;;
2021/03/03 10:35:13;;;;;;;0.4;0.2;;;;;;;16.02;27.4834;949.6328;;;;
2021/03/03 10:37:39;;;;;;;0.5;0.3;;;;;;;15.94;26.32227;949.6464;;;;
2021/03/03 10:40:05;;;;;;;0.5;0.3;;;;;;;15.9;27.46387;949.5634;;;;
2021/03/03 10:42:32;;;;;;;0.5;0.3;;;;;;;16;28.5918;949.5303;;;;
2021/03/03 10:44:58;;;;;;;0.1;0.1;;;;;;;16.28;27.28027;949.5287;;;;
2021/03/03 10:47:23;;;;;;;0.9;0.6;;;;;;;15.84;26.69727;949.5019;;;;
2021/03/03 10:49:49;;;;;;;0.3;0.2;;;;;;;15.96;27.6875;949.4562;;;;
2021/03/03 10:52:14;;;;;;;1.2;0.5;;;;;;;15.85;27.40332;949.4345;;;;
2021/03/03 10:54:43;;;;;;;2.2;0.3;;;;;;;16.39;28.09668;949.4359;;;;
2021/03/03 10:57:09;;;;;;;1.6;0.4;;;;;;;15.97;26.17383;949.4844;;;;
2021/03/03 10:59:38;;;;;;;0.5;0.1;;;;;;;15.94;27.55957;949.4119;;;;
2021/03/03 11:02:02;;;;;;;1;0.4;;;;;;;16.04;26.6748;949.3083;;;;
2021/03/03 11:04:26;;;;;;;0.5;0.2;;;;;;;15.72;26.77148;949.3328;;;;
2021/03/03 11:06:51;;;;;;;1.1;0.3;;;;;;;16.2;26.99805;949.3045;;;;
2021/03/03 11:09:20;;;;;;;0.7;0.6;;;;;;;16.72;27.26074;949.3596;;;;
2021/03/03 11:11:44;;;;;;;0.4;0.3;;;;;;;17.04;26.49316;949.2266;;;;
2021/03/03 11:14:11;;;;;;;0.7;0.3;;;;;;;17.24;26.86426;949.2112;;;;
2021/03/03 11:16:46;;;;;;;1.4;0.4;;;;;;;17.14;26.12793;949.1479;;;;
2021/03/03 11:19:16;;;;;;;0.2;0.2;;;;;;;17.29;25.54492;949.1395;;;;
2021/03/03 11:21:42;;;;;;;0;0;;;;;;;17.16;23.83398;949.0747;;;;
2021/03/03 11:24:08;;;;;;;0.5;0.3;;;;;;;17.52;24.5498;949.0731;;;;
2021/03/03 11:26:34;;;;;;;0.2;0.1;;;;;;;18.09;24.1748;949.0036;;;;
2021/03/03 11:29:01;;;;;;;1.2;0.5;;;;;;;18.54;23.35059;948.9205;;;;
2021/03/03 11:31:26;;;;;;;0.2;0.1;;;;;;;18.83;22.49316;948.8539;;;;
2021/03/03 11:33:56;;;;;;;0.2;0.1;;;;;;;19.22;22.16406;948.8416;;;;
2021/03/03 11:36:21;;;;;;;8.1;0.2;;;;;;;19.69;21.93066;948.8283;;;;
2021/03/03 11:38:49;;;;;;;0.4;0.3;;;;;;;19.96;21.87402;948.7969;;;;
2021/03/03 11:41:14;;;;;;;0.4;0.2;;;;;;;19.93;22.09473;948.7988;;;;
2021/03/03 11:43:42;;;;;;;0.4;0.2;;;;;;;19.97;22.14258;948.7419;;;;
2021/03/03 11:46:07;;;;;;;0;0;;;;;;;20.09;21.37891;948.7402;;;;
2021/03/03 11:48:35;;;;;;;0.5;0.1;;;;;;;20.15;20.87988;948.6852;;;;
2021/03/03 11:51:00;;;;;;;0.2;0.2;;;;;;;20.18;20.53125;948.6339;;;;
2021/03/03 11:53:29;;;;;;;0.3;0.1;;;;;;;20.25;21.35156;948.6423;;;;
2021/03/03 11:55:54;;;;;;;0.3;0.3;;;;;;;20.32;21.74023;948.6278;;;;
2021/03/03 11:58:20;;;;;;;0.7;0.3;;;;;;;20.36;21.66113;948.6289;;;;
2021/03/03 12:00:45;;;;;;;0.1;0.1;;;;;;;20.43;20.92871;948.6489;;;;
2021/03/03 12:03:13;;;;;;;0;0;;;;;;;20.55;20.37305;948.5909;;;;
2021/03/03 12:05:38;;;;;;;0.2;0.2;;;;;;;20.7;20.71875;948.5941;;;;
2021/03/03 12:08:04;;;;;;;0.9;0.1;;;;;;;20.71;19.93652;948.5365;;;;
2021/03/03 12:10:28;;;;;;;0.2;0.2;;;;;;;20.55;21.30762;948.548;;;;
2021/03/03 12:12:54;;;;;;;1.1;0.7;;;;;;;20.47;21.19922;948.5385;;;;
2021/03/03 12:15:21;;;;;;;0.5;0.2;;;;;;;19.88;22.51172;948.4969;;;;
2021/03/03 12:17:48;;;;;;;0.1;0.1;;;;;;;19.69;21.18457;948.4564;;;;
2021/03/03 12:20:13;;;;;;;0.9;0.3;;;;;;;18.98;22.83789;948.4518;;;;
2021/03/03 12:22:38;;;;;;;1.1;0.4;;;;;;;19.16;22.70801;948.4597;;;;
2021/03/03 12:25:03;;;;;;;2.9;0.7;;;;;;;19.1;23.29883;948.4327;;;;
2021/03/03 12:27:30;;;;;;;0.3;0.3;;;;;;;19.23;22.52539;948.285;;;;
2021/03/03 12:29:55;;;;;;;4.4;0.4;;;;;;;19.28;22.00293;948.363;;;;
2021/03/03 12:32:22;;;;;;;1.2;0.3;;;;;;;19.32;19.29102;948.3812;;;;
2021/03/03 12:34:47;;;;;;;0.3;0.1;;;;;;;19.17;20.32129;948.345;;;;
2021/03/03 12:37:14;;;;;;;0.1;0.1;;;;;;;19.23;20.19531;948.3052;;;;
2021/03/03 12:39:39;;;;;;;0.1;0.1;;;;;;;19.41;20.63477;948.2432;;;;
2021/03/03 12:42:05;;;;;;;0.4;0.2;;;;;;;19.48;20.41699;948.2339;;;;
2021/03/03 12:44:30;;;;;;;0.6;0.5;;;;;;;19.61;20.72656;948.1838;;;;
2021/03/03 12:46:56;;;;;;;0.7;0.3;;;;;;;18.88;21.14648;948.2369;;;;
2021/03/03 12:49:21;;;;;;;0.1;0.1;;;;;;;19.04;21.73535;948.1764;;;;
2021/03/03 12:51:46;;;;;;;0.3;0.2;;;;;;;19.16;22.1377;948.1254;;;;
2021/03/03 12:54:11;;;;;;;0.2;0.2;;;;;;;19.31;21.51563;948.1252;;;;
2021/03/03 12:56:38;;;;;;;0.4;0.1;;;;;;;19.52;21.59668;948.084;;;;
2021/03/03 12:59:03;;;;;;;1.2;0.5;;;;;;;19.52;21.57324;948.0753;;;;
2021/03/03 13:01:35;;;;;;;0.9;0.2;;;;;;;19.46;21.84961;948.0322;;;;
2021/03/03 13:04:02;;;;;;;0.2;0.2;;;;;;;19.3;22.07422;948.0236;;;;
2021/03/03 13:06:27;;;;;;;0.2;0.2;;;;;;;19.06;22.26074;948.0486;;;;
2021/03/03 13:08:54;;;;;;;1.4;0.5;;;;;;;18.83;22.60938;948.0347;;;;
2021/03/03 13:11:19;;;;;;;1.7;0.4;;;;;;;18.23;23.86816;948.0312;;;;
2021/03/03 13:13:45;;;;;;;0.2;0.2;;;;;;;17.76;25.49219;948.0134;;;;
2021/03/03 13:16:18;;;;;;;2.9;0.3;;;;;;;17.58;25.28418;947.9246;;;;
2021/03/03 13:18:45;;;;;;;0.9;0.3;;;;;;;17.51;25.21094;947.9601;;;;
2021/03/03 13:21:12;;;;;;;0.4;0.2;;;;;;;17.73;23.95703;947.9699;;;;
2021/03/03 13:23:38;;;;;;;0.4;0.3;;;;;;;17.88;23.23438;947.9005;;;;
2021/03/03 13:26:03;;;;;;;0.2;0.2;;;;;;;17.94;23.38867;947.8447;;;;
2021/03/03 13:28:30;;;;;;;0.7;0.5;;;;;;;18.07;23.37207;947.851;;;;
2021/03/03 13:30:55;;;;;;;0.6;0.3;;;;;;;18.22;22.91504;947.8745;;;;
2021/03/03 13:33:20;;;;;;;0.5;0.4;;;;;;;18.29;23.66211;947.8494;;;;
2021/03/03 13:35:46;;;;;;;0.3;0.2;;;;;;;18.34;23.7002;947.8056;;;;
2021/03/03 13:38:15;;;;;;;5.9;0.6;;;;;;;18.51;23.20898;947.7623;;;;
2021/03/03 13:40:44;;;;;;;0.6;0.3;;;;;;;18.61;24.16797;947.7664;;;;
2021/03/03 13:43:08;;;;;;;0.4;0.3;;;;;;;18.67;24.59082;947.7022;;;;
2021/03/03 13:45:35;;;;;;;1.1;0.5;;;;;;;18.74;24.58203;947.663;;;;
2021/03/03 13:48:00;;;;;;;0.8;0.4;;;;;;;18.83;24.51855;947.6537;;;;
2021/03/03 13:50:28;;;;;;;0.1;0.1;;;;;;;18.47;26.0791;947.6842;;;;
2021/03/03 13:52:56;;;;;;;1.4;0.5;;;;;;;18.55;26.41016;947.6975;;;;
2021/03/03 13:55:21;;;;;;;1.2;0.4;;;;;;;18.53;26.52539;947.6177;;;;
2021/03/03 13:57:46;;;;;;;2.4;0.3;;;;;;;18.12;27.11523;947.6702;;;;
2021/03/03 14:00:12;;;;;;;0.8;0.5;;;;;;;17.78;27.82617;947.6797;;;;
2021/03/03 14:02:38;;;;;;;0.2;0.2;;;;;;;17.54;27.93848;947.6114;;;;
2021/03/03 14:05:04;;;;;;;0.6;0.6;;;;;;;17.2;28.79883;947.6653;;;;
2021/03/03 14:07:31;;;;;;;2.3;0.6;;;;;;;17.09;29.60254;947.6951;;;;
2021/03/03 14:09:56;;;;;;;0.6;0.4;;;;;;;17.24;27.53711;947.6534;;;;
2021/03/03 14:12:22;;;;;;;0.4;0.2;;;;;;;17.27;28.65234;947.6228;;;;
2021/03/03 14:14:47;;;;;;;2.3;0.9;;;;;;;16.88;28.66113;947.6337;;;;
2021/03/03 14:17:12;;;;;;;4.5;0.7;;;;;;;16.47;30.06934;947.6469;;;;
2021/03/03 14:19:39;;;;;;;0.1;0.1;;;;;;;16.35;30.39648;947.5756;;;;
2021/03/03 14:22:04;;;;;;;0.4;0.4;;;;;;;16.61;28.58594;947.6037;;;;
2021/03/03 14:24:30;;;;;;;0.4;0.3;;;;;;;16.58;29.76465;947.6365;;;;
2021/03/03 14:26:55;;;;;;;0.9;0.4;;;;;;;16.84;28.56641;947.5017;;;;
2021/03/03 14:29:21;;;;;;;0.5;0.3;;;;;;;16.73;28.98828;947.4926;;;;
2021/03/03 14:31:46;;;;;;;0.5;0.5;;;;;;;16.92;28.25781;947.5283;;;;